createdAt,value
2019-03-25T00:02:15.545Z,3.10
2019-03-25T00:04:48.487Z,2.30
2019-03-25T00:07:17.687Z,2.60
2019-03-25T00:09:46.840Z,2.30
2019-03-25T00:12:15.999Z,2.12
2019-03-25T00:14:45.185Z,2.40
2019-03-25T00:17:14.446Z,1.95
2019-03-25T00:19:43.614Z,2.58
2019-03-25T00:22:12.780Z,2.40
2019-03-25T00:24:41.944Z,2.50
2019-03-25T00:27:11.113Z,2.27
2019-03-25T00:29:40.302Z,2.20
2019-03-25T00:32:09.543Z,2.20
2019-03-25T00:34:38.925Z,2.15
2019-03-25T00:37:08.089Z,2.13
2019-03-25T00:39:37.286Z,2.60
2019-03-25T00:42:06.532Z,1.63
2019-03-25T00:44:36.211Z,1.85
2019-03-25T00:47:05.485Z,2.40
2019-03-25T00:49:34.617Z,1.67
2019-03-25T00:52:05.910Z,2.55
2019-03-25T00:54:35.067Z,2.25
2019-03-25T00:57:04.263Z,2.40
2019-03-25T00:59:33.407Z,2.02
2019-03-25T01:02:02.649Z,2.60
2019-03-25T01:04:31.896Z,2.65
2019-03-25T01:07:01.105Z,2.92
2019-03-25T01:09:30.284Z,2.60
2019-03-25T01:11:59.698Z,2.60
2019-03-25T01:14:28.863Z,2.62
2019-03-25T01:16:58.024Z,2.30
2019-03-25T01:19:27.242Z,2.65
2019-03-25T01:21:56.522Z,2.30
2019-03-25T01:24:27.005Z,3.58
2019-03-25T01:26:56.113Z,2.83
2019-03-25T01:29:25.337Z,2.62
2019-03-25T01:31:54.672Z,2.90
2019-03-25T01:34:23.829Z,3.00
2019-03-25T01:36:52.984Z,2.47
2019-03-25T01:39:22.165Z,3.40
2019-03-25T01:41:51.325Z,3.80
2019-03-25T01:44:20.501Z,3.58
2019-03-25T01:46:49.650Z,2.85
2019-03-25T01:49:18.837Z,3.30
2019-03-25T01:51:47.974Z,4.03
2019-03-25T01:54:17.153Z,3.27
2019-03-25T01:56:46.391Z,3.55
2019-03-25T01:59:15.556Z,2.83
2019-03-25T02:01:44.765Z,4.08
2019-03-25T02:04:13.964Z,4.20
2019-03-25T02:06:43.181Z,3.90
2019-03-25T02:09:12.350Z,3.83
2019-03-25T02:11:41.525Z,3.65
2019-03-25T02:14:10.698Z,4.58
2019-03-25T02:16:39.895Z,4.15
2019-03-25T02:19:09.060Z,5.00
2019-03-25T02:21:38.218Z,3.65
2019-03-25T02:24:07.375Z,3.72
2019-03-25T02:26:36.547Z,3.58
2019-03-25T02:29:05.697Z,3.30
2019-03-25T02:31:34.887Z,3.98
2019-03-25T02:34:05.379Z,3.37
2019-03-25T02:36:34.452Z,3.75
2019-03-25T02:39:05.241Z,3.92
2019-03-25T02:41:34.406Z,4.25
2019-03-25T02:44:03.584Z,4.72
2019-03-25T02:46:32.728Z,3.40
2019-03-25T02:49:01.936Z,3.50
2019-03-25T02:51:31.092Z,3.47
2019-03-25T02:54:00.263Z,3.25
2019-03-25T02:56:29.438Z,2.92
2019-03-25T02:58:58.604Z,2.95
2019-03-25T03:01:27.821Z,2.60
2019-03-25T03:03:56.980Z,2.92
2019-03-25T03:06:26.504Z,3.55
2019-03-25T03:08:55.701Z,3.30
2019-03-25T03:11:24.867Z,2.87
2019-03-25T03:13:54.028Z,3.80
2019-03-25T03:16:23.257Z,4.65
2019-03-25T03:18:52.396Z,3.40
2019-03-25T03:21:21.545Z,3.52
2019-03-25T03:23:50.712Z,3.42
2019-03-25T03:26:20.476Z,3.52
2019-03-25T03:28:49.656Z,3.27
2019-03-25T03:31:18.794Z,3.47
2019-03-25T03:33:47.967Z,5.22
2019-03-25T03:36:17.125Z,3.90
2019-03-25T03:38:46.309Z,3.25
2019-03-25T03:41:15.477Z,2.83
2019-03-25T03:43:44.674Z,3.20
2019-03-25T03:46:13.988Z,3.25
2019-03-25T03:48:43.140Z,3.33
2019-03-25T03:51:12.559Z,3.62
2019-03-25T03:53:41.818Z,4.22
2019-03-25T03:56:13.530Z,3.55
2019-03-25T03:58:43.548Z,3.90
2019-03-25T04:01:12.714Z,4.20
2019-03-25T04:03:41.910Z,3.42
2019-03-25T04:06:11.067Z,3.62
2019-03-25T04:08:40.343Z,3.75
2019-03-25T04:11:09.494Z,3.42
2019-03-25T04:13:38.711Z,3.10
2019-03-25T04:16:07.869Z,3.58
2019-03-25T04:18:38.099Z,3.60
2019-03-25T04:21:07.277Z,3.62
2019-03-25T04:23:36.438Z,3.85
2019-03-25T04:26:05.695Z,4.47
2019-03-25T04:28:35.298Z,3.75
2019-03-25T04:31:04.466Z,3.90
2019-03-25T04:33:33.619Z,2.95
2019-03-25T04:36:02.793Z,3.75
2019-03-25T04:38:32.183Z,3.30
2019-03-25T04:41:01.445Z,3.70
2019-03-25T04:43:30.586Z,3.98
2019-03-25T04:45:59.755Z,4.12
2019-03-25T04:48:28.937Z,3.40
2019-03-25T04:50:58.099Z,3.85
2019-03-25T04:53:27.261Z,4.05
2019-03-25T04:55:56.425Z,3.47
2019-03-25T04:58:25.593Z,4.50
2019-03-25T05:00:54.767Z,3.90
2019-03-25T05:03:23.963Z,4.67
2019-03-25T05:05:53.148Z,5.08
2019-03-25T05:08:22.340Z,4.30
2019-03-25T05:10:51.531Z,5.22
2019-03-25T05:13:20.693Z,4.67
2019-03-25T05:15:49.875Z,5.08
2019-03-25T05:18:19.084Z,3.92
2019-03-25T05:20:48.285Z,4.30
2019-03-25T05:23:17.512Z,4.78
2019-03-25T05:25:46.685Z,4.53
2019-03-25T05:28:15.834Z,5.62
2019-03-25T05:30:44.991Z,4.80
2019-03-25T05:33:14.296Z,4.90
2019-03-25T05:35:43.524Z,5.20
2019-03-25T05:38:12.698Z,6.28
2019-03-25T05:40:41.852Z,5.45
2019-03-25T05:43:10.996Z,5.28
2019-03-25T05:45:40.136Z,5.03
2019-03-25T05:48:09.346Z,5.78
2019-03-25T05:50:38.496Z,5.70
2019-03-25T05:53:07.669Z,5.00
2019-03-25T05:55:36.947Z,5.58
2019-03-25T05:58:06.143Z,5.85
2019-03-25T06:00:36.698Z,6.28
2019-03-25T06:03:06.000Z,6.03
2019-03-25T06:05:35.186Z,5.45
2019-03-25T06:08:04.444Z,7.10
2019-03-25T06:10:33.600Z,5.65
2019-03-25T06:13:02.789Z,6.58
2019-03-25T06:15:31.942Z,5.75
2019-03-25T06:18:01.103Z,6.90
2019-03-25T06:20:30.275Z,6.10
2019-03-25T06:22:59.460Z,6.17
2019-03-25T06:25:28.659Z,6.35
2019-03-25T06:27:58.064Z,5.17
2019-03-25T06:30:30.169Z,6.97
2019-03-25T06:32:59.561Z,6.35
2019-03-25T06:35:28.709Z,5.47
2019-03-25T06:37:57.899Z,5.97
2019-03-25T06:40:27.079Z,6.55
2019-03-25T06:42:56.261Z,5.90
2019-03-25T06:45:25.465Z,6.05
2019-03-25T06:47:54.679Z,6.90
2019-03-25T06:50:23.827Z,6.70
2019-03-25T06:52:53.701Z,6.87
2019-03-25T06:55:22.863Z,7.47
2019-03-25T06:57:52.112Z,6.47
2019-03-25T07:00:21.768Z,6.55
2019-03-25T07:02:50.944Z,7.05
2019-03-25T07:05:20.219Z,6.40
2019-03-25T07:07:49.416Z,6.00
2019-03-25T07:10:31.515Z,6.03
2019-03-25T07:13:01.265Z,6.58
2019-03-25T07:15:30.556Z,5.70
2019-03-25T07:17:59.796Z,6.00
2019-03-25T07:20:29.126Z,5.50
2019-03-25T07:22:58.437Z,5.92
2019-03-25T07:25:27.627Z,6.58
2019-03-25T07:27:56.905Z,5.10
2019-03-25T07:30:26.082Z,6.42
2019-03-25T07:32:55.240Z,6.30
2019-03-25T07:35:24.431Z,6.53
2019-03-25T07:37:53.568Z,5.28
2019-03-25T07:40:22.756Z,6.00
2019-03-25T07:42:52.016Z,8.20
2019-03-25T07:45:21.216Z,7.65
2019-03-25T07:47:50.385Z,8.20
2019-03-25T07:50:19.705Z,7.42
2019-03-25T07:52:48.854Z,7.60
2019-03-25T07:55:18.054Z,7.53
2019-03-25T07:57:48.616Z,7.05
2019-03-25T08:00:18.568Z,6.87
2019-03-25T08:02:47.771Z,8.40
2019-03-25T08:05:17.073Z,6.95
2019-03-25T08:07:49.837Z,6.08
2019-03-25T08:10:34.936Z,6.75
2019-03-25T08:13:04.338Z,7.92
2019-03-25T08:15:33.883Z,8.50
2019-03-25T08:18:03.190Z,8.05
2019-03-25T08:20:32.464Z,7.42
2019-03-25T08:23:01.621Z,8.55
2019-03-25T08:25:30.965Z,8.53
2019-03-25T08:28:00.688Z,8.55
2019-03-25T08:30:30.068Z,7.30
2019-03-25T08:32:59.390Z,7.62
2019-03-25T08:35:28.655Z,7.25
2019-03-25T08:37:57.885Z,6.70
2019-03-25T08:40:27.125Z,7.58
2019-03-25T08:42:56.277Z,7.80
2019-03-25T08:45:25.547Z,6.60
2019-03-25T08:47:54.748Z,5.87
2019-03-25T08:50:23.994Z,6.87
2019-03-25T08:52:53.332Z,5.90
2019-03-25T08:55:22.548Z,6.20
2019-03-25T08:57:51.834Z,5.73
2019-03-25T09:00:21.245Z,5.80
2019-03-25T09:02:50.419Z,6.12
2019-03-25T09:05:19.830Z,5.67
2019-03-25T09:07:49.033Z,5.03
2019-03-25T09:10:18.364Z,4.28
2019-03-25T09:12:47.553Z,4.40
2019-03-25T09:15:16.853Z,3.47
2019-03-25T09:17:46.250Z,4.03
2019-03-25T09:20:15.893Z,3.52
2019-03-25T09:22:45.465Z,3.55
2019-03-25T09:25:17.149Z,4.00
2019-03-25T09:27:46.346Z,3.70
2019-03-25T09:30:36.051Z,2.85
2019-03-25T09:33:05.367Z,2.72
2019-03-25T09:35:34.583Z,3.85
2019-03-25T09:38:03.904Z,3.87
2019-03-25T09:40:33.051Z,4.50
2019-03-25T09:43:02.277Z,3.45
2019-03-25T09:45:31.463Z,3.35
2019-03-25T09:48:00.711Z,3.52
2019-03-25T09:50:29.948Z,3.50
2019-03-25T09:52:59.170Z,3.73
2019-03-25T09:55:28.391Z,3.47
2019-03-25T09:57:57.582Z,3.33
2019-03-25T10:00:31.677Z,2.80
2019-03-25T10:03:01.047Z,3.73
2019-03-25T10:05:30.491Z,2.10
2019-03-25T10:07:59.660Z,3.33
2019-03-25T10:10:28.890Z,3.60
2019-03-25T10:12:58.440Z,2.83
2019-03-25T10:15:27.683Z,2.80
2019-03-25T10:17:56.953Z,3.80
2019-03-25T10:20:26.866Z,3.20
2019-03-25T10:22:56.307Z,2.90
2019-03-25T10:25:25.574Z,2.00
2019-03-25T10:27:54.834Z,2.50
2019-03-25T10:30:24.453Z,2.55
2019-03-25T10:32:53.705Z,2.72
2019-03-25T10:35:22.873Z,2.25
2019-03-25T10:37:52.124Z,3.40
2019-03-25T10:40:21.299Z,2.47
2019-03-25T10:42:51.105Z,2.62
2019-03-25T10:45:20.363Z,2.60
2019-03-25T10:47:49.532Z,2.70
2019-03-25T10:50:19.792Z,2.30
2019-03-25T10:52:49.001Z,3.30
2019-03-25T10:55:18.253Z,4.00
2019-03-25T10:57:47.447Z,2.58
2019-03-25T11:00:17.191Z,3.50
2019-03-25T11:02:46.435Z,3.10
2019-03-25T11:05:15.718Z,3.70
2019-03-25T11:07:44.935Z,2.70
2019-03-25T11:10:14.409Z,3.77
2019-03-25T11:12:43.603Z,2.27
2019-03-25T11:15:13.453Z,2.97
2019-03-25T11:17:42.703Z,2.20
2019-03-25T11:20:12.245Z,3.10
2019-03-25T11:22:41.394Z,2.60
2019-03-25T11:25:12.290Z,2.40
2019-03-25T11:27:41.467Z,2.95
2019-03-25T11:30:11.355Z,3.83
2019-03-25T11:32:40.694Z,2.77
2019-03-25T11:35:10.519Z,2.20
2019-03-25T11:37:39.765Z,2.57
2019-03-25T11:40:10.965Z,3.92
2019-03-25T11:42:40.198Z,2.10
2019-03-25T11:45:10.243Z,1.92
2019-03-25T11:47:39.505Z,1.37
2019-03-25T11:50:09.439Z,1.10
2019-03-25T11:52:38.683Z,1.35
2019-03-25T11:55:09.734Z,0.82
2019-03-25T11:58:08.057Z,2.50
2019-03-25T12:00:37.325Z,1.90
2019-03-25T12:03:06.565Z,2.10
2019-03-25T12:05:35.801Z,2.08
2019-03-25T12:08:05.302Z,2.58
2019-03-25T12:10:34.648Z,3.35
2019-03-25T12:13:03.874Z,2.05
2019-03-25T12:15:33.193Z,2.70
2019-03-25T12:18:02.373Z,2.40
2019-03-25T12:20:31.631Z,2.95
2019-03-25T12:23:09.830Z,2.30
2019-03-25T12:35:49.316Z,2.10
2019-03-25T12:38:18.630Z,2.43
2019-03-25T12:40:53.962Z,2.12
2019-03-25T12:43:24.131Z,2.00
2019-03-25T12:46:04.549Z,2.50
2019-03-25T12:48:38.025Z,2.20
2019-03-25T12:51:07.282Z,1.70
2019-03-25T12:53:36.540Z,1.70
2019-03-25T12:56:05.787Z,1.63
2019-03-25T12:58:35.034Z,1.40
2019-03-25T13:01:04.284Z,1.13
2019-03-25T13:03:33.458Z,1.70
2019-03-25T13:06:02.800Z,1.40
2019-03-25T13:08:33.471Z,1.37
2019-03-25T13:11:02.696Z,1.00
2019-03-25T13:13:31.864Z,0.60
2019-03-25T13:16:01.047Z,0.83
2019-03-25T13:18:32.820Z,0.90
2019-03-25T13:21:08.792Z,0.70
2019-03-25T13:23:37.986Z,0.70
2019-03-25T13:26:07.172Z,1.00
2019-03-25T13:28:36.335Z,0.90
2019-03-25T13:31:05.537Z,0.70
2019-03-25T13:33:34.718Z,1.53
2019-03-25T13:36:04.168Z,0.80
2019-03-25T13:38:33.346Z,0.75
2019-03-25T13:41:02.535Z,0.90
2019-03-25T13:43:31.720Z,1.00
2019-03-25T13:46:05.293Z,0.80
2019-03-25T13:48:31.902Z,1.02
2019-03-25T13:51:01.049Z,0.90
2019-03-25T13:53:30.214Z,1.40
2019-03-25T13:55:59.355Z,0.90
2019-03-25T13:58:28.933Z,1.30
2019-03-25T14:00:58.214Z,1.20
2019-03-25T14:03:27.400Z,1.00
2019-03-25T14:05:56.617Z,0.80
2019-03-25T14:08:25.821Z,0.80
2019-03-25T14:10:55.061Z,0.93
2019-03-25T14:13:24.244Z,0.70
2019-03-25T14:15:53.428Z,1.07
2019-03-25T14:18:22.691Z,0.70
2019-03-25T14:20:51.846Z,0.90
2019-03-25T14:23:21.017Z,1.00
2019-03-25T14:25:50.277Z,1.20
2019-03-25T14:28:19.459Z,0.80
2019-03-25T14:30:48.636Z,1.37
2019-03-25T14:33:17.784Z,1.57
2019-03-25T14:35:46.963Z,1.37
2019-03-25T14:38:16.158Z,1.00
2019-03-25T14:40:46.222Z,1.40
2019-03-25T14:43:15.372Z,1.30
2019-03-25T14:45:45.277Z,1.17
2019-03-25T14:48:14.517Z,1.23
2019-03-25T14:50:43.790Z,1.07
2019-03-25T14:53:12.956Z,2.60
2019-03-25T14:55:42.271Z,0.83
2019-03-25T14:58:11.407Z,0.87
2019-03-25T15:00:40.664Z,0.70
2019-03-25T15:03:09.809Z,0.90
2019-03-25T15:05:39.147Z,0.90
2019-03-25T15:08:08.306Z,1.20
2019-03-25T15:10:37.479Z,1.00
2019-03-25T15:13:06.739Z,1.37
2019-03-25T15:15:35.906Z,0.70
2019-03-25T15:18:15.001Z,1.10
2019-03-25T15:20:35.969Z,0.80
2019-03-25T15:23:05.201Z,0.78
2019-03-25T15:25:34.884Z,0.50
2019-03-25T15:28:04.099Z,0.60
2019-03-25T15:30:36.339Z,0.70
2019-03-25T15:33:04.319Z,0.60
2019-03-25T15:35:33.481Z,0.87
2019-03-25T15:38:02.647Z,1.20
2019-03-25T15:47:47.211Z,0.75
2019-03-25T15:54:00.413Z,1.03
2019-03-25T15:57:04.583Z,1.30
2019-03-25T15:59:43.663Z,1.70
2019-03-25T16:04:58.000Z,1.40
2019-03-25T16:14:29.451Z,1.07
2019-03-25T16:16:58.613Z,1.17
2019-03-25T16:20:31.415Z,1.27
2019-03-25T16:23:16.923Z,1.33
2019-03-25T16:25:47.801Z,1.10
2019-03-25T16:28:27.363Z,1.05
2019-03-25T16:31:08.651Z,1.03
2019-03-25T16:33:38.108Z,1.20
2019-03-25T16:44:40.415Z,2.17
2019-03-25T16:55:35.363Z,1.87
2019-03-25T17:09:35.202Z,1.70
2019-03-25T17:18:56.306Z,3.10
2019-03-25T17:21:58.004Z,1.80
2019-03-25T17:25:17.226Z,1.87
2019-03-25T17:28:31.363Z,1.70
2019-03-25T17:31:09.121Z,2.23
2019-03-25T17:33:50.067Z,1.98
2019-03-25T17:36:41.172Z,2.10
2019-03-25T17:39:36.825Z,4.03
2019-03-25T17:42:21.002Z,5.27
2019-03-25T17:51:22.160Z,1.40
2019-03-25T17:54:03.979Z,0.90
2019-03-25T18:01:17.855Z,1.25
2019-03-25T18:04:11.222Z,1.10
2019-03-25T18:06:56.222Z,0.98
2019-03-25T18:09:43.855Z,0.60
2019-03-25T18:12:58.571Z,0.60
2019-03-25T18:16:18.914Z,0.42
2019-03-25T18:22:39.263Z,1.20
2019-03-25T18:28:40.188Z,0.90
2019-03-25T18:31:43.723Z,1.10
2019-03-25T18:34:27.267Z,1.50
2019-03-25T18:37:33.053Z,0.95
2019-03-25T18:40:33.379Z,1.57
2019-03-25T18:43:28.252Z,1.40
2019-03-25T18:46:18.777Z,1.47
2019-03-25T18:49:43.183Z,1.70
2019-03-25T18:52:35.387Z,1.82
2019-03-25T18:55:24.053Z,1.50
2019-03-25T18:58:07.150Z,1.50
2019-03-25T19:00:47.365Z,3.20
2019-03-25T19:04:11.870Z,4.87
2019-03-25T19:06:54.499Z,3.45
2019-03-25T19:09:37.943Z,2.80
2019-03-25T19:12:15.815Z,2.60
2019-03-25T19:15:31.240Z,2.25
2019-03-25T19:18:22.648Z,2.77
2019-03-25T19:21:01.427Z,3.00
2019-03-25T19:23:59.674Z,3.65
2019-03-25T19:26:45.322Z,3.50
2019-03-25T19:29:29.119Z,1.77
2019-03-25T19:32:08.847Z,2.05
2019-03-25T19:35:14.740Z,1.90
2019-03-25T19:38:23.944Z,1.20
2019-03-25T19:44:46.241Z,1.82
2019-03-25T19:47:37.612Z,1.98
2019-03-25T19:50:41.383Z,1.80
2019-03-25T19:53:49.778Z,1.40
2019-03-25T19:56:42.739Z,2.42
2019-03-25T20:02:37.070Z,1.60
2019-03-25T20:05:37.513Z,1.92
2019-03-25T20:08:25.210Z,1.25
2019-03-25T20:18:52.239Z,1.52
2019-03-25T20:42:38.517Z,2.40
2019-03-25T20:48:54.481Z,2.65
2019-03-25T20:52:18.709Z,3.20
2019-03-25T20:59:36.009Z,2.42
2019-03-25T21:02:44.186Z,2.83
2019-03-25T21:05:33.984Z,2.20
2019-03-25T21:09:13.945Z,3.10
2019-03-25T21:15:30.734Z,3.17
2019-03-25T21:22:04.955Z,3.50
2019-03-25T21:25:08.097Z,3.20
2019-03-25T21:29:07.018Z,3.90
2019-03-25T21:39:29.110Z,3.37
2019-03-25T21:42:14.709Z,3.35
2019-03-25T21:44:40.802Z,2.83
2019-03-25T21:47:54.046Z,3.00
2019-03-25T21:51:05.884Z,3.17
2019-03-25T21:53:59.227Z,3.15
2019-03-25T21:57:06.297Z,3.05
2019-03-25T22:00:06.354Z,4.60
2019-03-25T22:07:49.237Z,4.78
2019-03-25T22:09:57.288Z,5.22
2019-03-25T22:16:46.853Z,4.62
2019-03-25T22:19:59.425Z,3.40
2019-03-25T22:29:29.769Z,3.08
2019-03-25T22:36:47.361Z,3.40
2019-03-25T22:38:48.915Z,3.40
2019-03-25T22:45:35.525Z,3.87
2019-03-25T22:48:22.792Z,3.65
2019-03-25T22:50:48.780Z,3.65
2019-03-25T22:53:40.459Z,4.17
2019-03-25T22:56:41.890Z,4.15
2019-03-25T23:00:43.838Z,4.05
2019-03-25T23:03:01.185Z,4.85
2019-03-25T23:05:31.874Z,3.58
2019-03-25T23:08:01.053Z,3.92
2019-03-25T23:11:02.307Z,3.98
2019-03-25T23:13:50.797Z,3.50
2019-03-25T23:16:26.225Z,3.35
2019-03-25T23:19:52.487Z,2.87
2019-03-25T23:22:57.945Z,3.60
2019-03-25T23:25:30.694Z,3.70
2019-03-25T23:28:02.505Z,4.05
2019-03-25T23:31:33.957Z,3.92
2019-03-25T23:34:45.438Z,3.40
2019-03-25T23:41:15.603Z,3.37
2019-03-25T23:48:05.404Z,3.75
2019-03-25T23:54:26.889Z,3.40
2019-03-25T23:57:46.186Z,2.67
